Time;durP1;ratioP1;P1;durP2;ratioP2;P2;SDS_P1;SDS_P2;PMS_P1;PMS_P2;Temp;Humidity;BMP_temperature;BMP_pressure;BME280_temperature;BME280_humidity;BME280_pressure;Samples;Min_cycle;Max_cycle;Signal;HPM_P1;HPM_P2
2023/03/09 00:02:20;;;;;;;2.72;2.00;;;;;;;10.97;43.70;94241.59;5117569;28;20195;-70
2023/03/09 00:04:48;;;;;;;2.42;2.20;;;;;;;10.99;43.91;94244.75;5117621;28;20204;-70
2023/03/09 00:07:15;;;;;;;2.22;2.08;;;;;;;10.90;43.88;94249.00;5118494;28;20180;-71
2023/03/09 00:09:41;;;;;;;2.58;2.25;;;;;;;10.89;44.36;94230.84;5118168;27;20206;-70
2023/03/09 00:12:08;;;;;;;2.20;2.00;;;;;;;10.90;44.08;94224.97;5117372;28;20223;-71
2023/03/09 00:14:35;;;;;;;2.17;2.08;;;;;;;10.90;44.18;94237.97;5118219;28;20180;-71
2023/03/09 00:17:02;;;;;;;2.40;2.20;;;;;;;10.89;44.16;94237.13;5117395;28;20205;-71
2023/03/09 00:19:30;;;;;;;2.00;1.90;;;;;;;10.88;43.89;94227.28;5118233;28;20199;-71
2023/03/09 00:21:58;;;;;;;2.33;2.00;;;;;;;10.90;44.40;94227.72;5118229;28;20199;-71
2023/03/09 00:24:27;;;;;;;2.28;2.08;;;;;;;10.85;43.87;94226.06;5118110;28;20195;-70
2023/03/09 00:26:55;;;;;;;2.28;2.08;;;;;;;10.84;44.20;94227.25;5117389;28;20204;-71
2023/03/09 00:29:23;;;;;;;2.38;2.20;;;;;;;10.82;44.10;94228.78;5118257;28;20184;-70
2023/03/09 00:31:50;;;;;;;2.20;2.10;;;;;;;10.83;44.14;94224.88;5117105;28;20199;-71
2023/03/09 00:34:17;;;;;;;3.97;3.58;;;;;;;10.82;44.56;94226.84;5116583;28;20211;-72
2023/03/09 00:36:44;;;;;;;6.22;5.22;;;;;;;10.71;45.32;94231.44;5117099;28;20278;-71
2023/03/09 00:39:14;;;;;;;6.15;5.55;;;;;;;10.53;45.86;94239.44;5117708;28;20191;-71
2023/03/09 00:41:42;;;;;;;7.82;7.03;;;;;;;10.36;46.56;94215.19;5119812;27;20244;-71
2023/03/09 00:44:09;;;;;;;6.78;6.13;;;;;;;10.19;47.04;94210.97;5138253;27;20209;-71
2023/03/09 00:46:36;;;;;;;5.15;4.50;;;;;;;9.93;47.78;94222.75;5119859;27;20198;-71
2023/03/09 00:49:06;;;;;;;5.10;4.60;;;;;;;9.87;47.89;94214.00;5137881;27;20176;-71
2023/03/09 00:51:33;;;;;;;5.38;4.82;;;;;;;9.79;48.00;94212.31;5118834;27;20199;-71
2023/03/09 00:54:00;;;;;;;5.80;4.80;;;;;;;9.69;48.59;94209.38;5119482;27;20214;-71
2023/03/09 00:56:29;;;;;;;7.05;5.07;;;;;;;9.63;48.76;94208.91;5120147;27;20195;-71
2023/03/09 00:58:57;;;;;;;5.50;5.00;;;;;;;9.54;48.99;94209.13;5138082;27;20202;-71
2023/03/09 01:01:24;;;;;;;5.97;5.47;;;;;;;9.39;49.42;94216.34;5137531;27;20191;-71
2023/03/09 01:03:52;;;;;;;6.50;5.80;;;;;;;9.26;50.23;94231.47;5137710;27;20269;-71
2023/03/09 01:06:19;;;;;;;7.63;6.05;;;;;;;9.25;50.62;94218.84;5137430;27;20191;-71
2023/03/09 01:08:47;;;;;;;6.70;5.95;;;;;;;9.29;50.42;94211.44;5138104;27;20175;-70
2023/03/09 01:11:15;;;;;;;6.90;6.22;;;;;;;9.21;50.32;94222.69;5137952;27;20229;-71
2023/03/09 01:13:44;;;;;;;8.45;6.95;;;;;;;9.22;50.43;94225.06;5119767;27;20214;-70
2023/03/09 01:16:11;;;;;;;6.68;5.82;;;;;;;9.16;50.81;94210.81;5119415;27;20205;-71
2023/03/09 01:18:38;;;;;;;6.90;6.28;;;;;;;9.11;50.65;94193.81;5119455;27;20198;-71
2023/03/09 01:21:05;;;;;;;6.60;5.97;;;;;;;9.07;51.12;94201.19;5119532;27;20219;-71
2023/03/09 01:23:32;;;;;;;7.70;6.45;;;;;;;9.00;51.07;94195.56;5119205;27;20195;-71
2023/03/09 01:25:59;;;;;;;6.68;5.95;;;;;;;8.96;51.00;94192.75;5119537;27;20315;-70
2023/03/09 01:28:25;;;;;;;7.82;6.22;;;;;;;8.92;51.14;94181.69;5119366;27;20629;-70
2023/03/09 01:30:53;;;;;;;7.10;6.38;;;;;;;8.92;51.45;94189.13;5119426;27;20199;-70
2023/03/09 01:33:20;;;;;;;8.18;7.38;;;;;;;8.89;51.57;94209.09;5118902;27;20226;-71
2023/03/09 01:35:47;;;;;;;9.27;8.38;;;;;;;8.88;51.58;94182.78;5119131;27;20206;-71
2023/03/09 01:38:14;;;;;;;8.52;7.72;;;;;;;8.85;52.10;94200.78;5118980;27;20195;-71
2023/03/09 01:40:45;;;;;;;8.77;7.55;;;;;;;8.75;52.34;94189.56;5119161;27;20272;-71
2023/03/09 01:43:34;;;;;;;9.02;7.97;;;;;;;8.72;52.30;94171.09;5115247;28;20238;-71
2023/03/09 01:46:30;;;;;;;9.25;8.18;;;;;;;8.66;52.47;94182.34;5115263;28;20310;-71
2023/03/09 01:49:01;;;;;;;9.13;7.70;;;;;;;8.64;52.64;94179.19;5115435;28;20608;-71
2023/03/09 01:51:31;;;;;;;8.45;7.65;;;;;;;8.62;52.80;94173.25;5115323;28;20214;-71
2023/03/09 01:54:00;;;;;;;8.07;7.28;;;;;;;8.63;52.94;94174.03;5115230;28;20214;-71
2023/03/09 01:56:28;;;;;;;8.65;7.85;;;;;;;8.59;52.85;94165.72;5116152;28;20188;-71
2023/03/09 01:58:56;;;;;;;9.30;8.20;;;;;;;8.54;53.05;94179.75;5115330;28;20543;-71
2023/03/09 02:01:23;;;;;;;8.00;7.20;;;;;;;8.46;53.20;94179.97;5115265;28;20195;-72
2023/03/09 02:04:02;;;;;;;8.55;7.72;;;;;;;8.41;53.42;94179.09;5115121;28;20195;-71
2023/03/09 02:06:30;;;;;;;9.98;8.27;;;;;;;8.38;53.31;94170.78;5114835;28;20206;-71
2023/03/09 02:09:02;;;;;;;8.73;7.70;;;;;;;8.38;53.09;94182.56;5114667;28;20199;-71
2023/03/09 02:11:29;;;;;;;8.30;7.53;;;;;;;8.34;53.56;94178.91;5115337;28;20210;-72
2023/03/09 02:13:56;;;;;;;8.27;7.47;;;;;;;8.35;53.86;94186.03;5115031;28;20211;-72
2023/03/09 02:16:22;;;;;;;8.70;7.80;;;;;;;8.33;53.50;94193.81;5114748;28;20628;-72
2023/03/09 02:18:49;;;;;;;7.72;6.93;;;;;;;8.32;53.69;94196.94;5115661;28;20183;-71
2023/03/09 02:21:23;;;;;;;8.55;7.35;;;;;;;8.27;54.00;94180.72;5115499;28;20476;-71
2023/03/09 02:23:55;;;;;;;8.70;7.80;;;;;;;8.18;54.58;94172.69;5115920;28;20252;-71
2023/03/09 02:26:24;;;;;;;8.45;7.65;;;;;;;8.14;54.36;94180.84;5115821;28;20211;-71
2023/03/09 02:28:52;;;;;;;9.13;7.78;;;;;;;8.12;54.39;94196.88;5115289;28;20206;-71
2023/03/09 02:31:20;;;;;;;9.02;7.32;;;;;;;8.19;54.06;94197.03;5114975;28;20559;-70
2023/03/09 02:33:46;;;;;;;8.32;7.45;;;;;;;8.17;54.24;94191.13;5115760;28;20211;-71
2023/03/09 02:36:14;;;;;;;7.72;6.90;;;;;;;8.13;54.81;94182.00;5115290;28;20192;-72
2023/03/09 02:38:40;;;;;;;7.80;7.00;;;;;;;8.16;54.54;94203.25;5114750;28;20291;-72
2023/03/09 02:41:11;;;;;;;7.53;6.80;;;;;;;8.17;54.11;94190.34;5114541;28;20191;-72
2023/03/09 02:43:42;;;;;;;7.80;7.00;;;;;;;8.18;54.19;94189.97;5114243;28;20246;-71
2023/03/09 02:46:10;;;;;;;7.60;6.80;;;;;;;8.16;54.19;94194.22;5114383;28;20278;-70
2023/03/09 02:48:37;;;;;;;7.07;6.47;;;;;;;8.16;54.56;94191.47;5115381;28;20270;-70
2023/03/09 02:51:05;;;;;;;7.63;6.82;;;;;;;8.16;54.48;94189.50;5115389;28;20203;-70
2023/03/09 02:53:32;;;;;;;7.78;6.97;;;;;;;8.23;54.61;94208.09;5114443;28;20286;-70
2023/03/09 02:55:59;;;;;;;7.03;6.32;;;;;;;8.24;54.40;94195.94;5115720;28;20552;-71
2023/03/09 02:58:25;;;;;;;7.53;6.82;;;;;;;8.25;54.55;94189.31;5115001;28;20215;-70
2023/03/09 03:00:52;;;;;;;7.63;6.82;;;;;;;8.22;54.73;94195.53;5114634;28;20210;-70
2023/03/09 03:03:20;;;;;;;7.60;6.95;;;;;;;8.17;54.61;94190.34;5115015;28;20196;-70
2023/03/09 03:05:47;;;;;;;7.60;6.90;;;;;;;8.18;54.56;94184.47;5115601;28;20187;-70
2023/03/09 03:08:14;;;;;;;8.18;7.38;;;;;;;8.16;54.74;94205.19;5114721;28;20325;-71
2023/03/09 03:10:41;;;;;;;8.30;7.38;;;;;;;8.11;54.71;94200.00;5115478;28;20196;-71
2023/03/09 03:13:08;;;;;;;7.38;6.60;;;;;;;8.11;54.49;94211.78;5115474;28;20264;-70
2023/03/09 03:15:35;;;;;;;7.75;7.05;;;;;;;8.09;55.06;94210.53;5118596;28;20207;-70
2023/03/09 03:18:02;;;;;;;8.35;7.00;;;;;;;8.08;55.07;94233.66;5118311;28;20208;-71
2023/03/09 03:20:30;;;;;;;8.52;7.63;;;;;;;8.09;55.00;94218.78;5118792;28;20195;-71
2023/03/09 03:22:57;;;;;;;8.00;7.00;;;;;;;8.08;55.23;94211.69;5119028;28;20496;-71
2023/03/09 03:25:24;;;;;;;9.13;7.10;;;;;;;8.03;55.30;94218.25;5118493;28;20591;-71
2023/03/09 03:27:50;;;;;;;7.35;6.65;;;;;;;8.06;55.12;94208.50;5119314;28;20180;-70
2023/03/09 03:30:17;;;;;;;7.40;6.70;;;;;;;8.05;54.98;94226.94;5118049;28;20188;-70
2023/03/09 03:32:45;;;;;;;7.28;6.57;;;;;;;8.08;55.00;94217.97;5118771;28;20195;-71
2023/03/09 03:35:12;;;;;;;7.65;6.72;;;;;;;8.06;55.06;94220.31;5118403;28;20212;-71
2023/03/09 03:37:40;;;;;;;8.48;7.57;;;;;;;7.96;55.59;94215.34;5118875;28;20184;-70
2023/03/09 03:40:08;;;;;;;8.30;6.53;;;;;;;8.00;55.37;94215.44;5118084;28;20195;-71
2023/03/09 03:42:35;;;;;;;7.43;6.80;;;;;;;7.96;55.37;94223.59;5128714;27;20288;-71
2023/03/09 03:45:02;;;;;;;8.10;7.30;;;;;;;7.88;55.94;94213.56;5121354;27;20202;-72
2023/03/09 03:47:29;;;;;;;8.23;7.43;;;;;;;7.84;55.59;94215.44;5139253;27;20198;-72
2023/03/09 03:49:55;;;;;;;7.32;6.57;;;;;;;7.88;55.70;94222.63;5139024;27;20206;-71
2023/03/09 03:52:23;;;;;;;6.68;6.07;;;;;;;7.90;55.31;94222.25;5121510;27;20199;-72
2023/03/09 03:54:51;;;;;;;7.53;6.70;;;;;;;7.94;55.68;94215.69;5121085;27;20302;-71
2023/03/09 03:57:18;;;;;;;14.43;12.85;;;;;;;7.84;56.10;94208.03;5121177;27;20203;-71
2023/03/09 03:59:45;;;;;;;14.68;13.00;;;;;;;7.74;56.31;94205.03;5120648;27;20525;-71
2023/03/09 04:02:12;;;;;;;11.77;10.57;;;;;;;7.60;56.90;94220.00;5138971;27;20264;-71
2023/03/09 04:04:39;;;;;;;11.77;9.48;;;;;;;7.59;56.82;94221.16;5120779;27;20195;-71
2023/03/09 04:07:05;;;;;;;9.55;8.65;;;;;;;7.56;57.11;94215.56;5121158;27;20602;-70
2023/03/09 04:09:33;;;;;;;9.30;8.23;;;;;;;7.52;57.03;94220.97;5120696;27;20614;-70
2023/03/09 04:12:01;;;;;;;11.25;8.48;;;;;;;7.51;57.27;94224.84;5120795;27;20203;-70
2023/03/09 04:14:32;;;;;;;9.70;8.70;;;;;;;7.50;56.96;94227.94;5120768;27;20219;-70
2023/03/09 04:17:00;;;;;;;9.65;8.30;;;;;;;7.47;57.42;94216.53;5121932;27;20225;-70
2023/03/09 04:19:47;;;;;;;8.20;6.93;;;;;;;7.45;56.74;94207.06;5121695;27;20202;-70
2023/03/09 04:22:33;;;;;;;8.50;7.45;;;;;;;7.40;57.41;94221.81;5136045;27;20206;-71
2023/03/09 04:25:03;;;;;;;10.38;7.40;;;;;;;7.40;57.39;94218.28;5120460;27;20256;-71
2023/03/09 04:27:51;;;;;;;7.95;6.68;;;;;;;7.42;57.62;94203.06;5135879;27;20202;-71
2023/03/09 04:30:20;;;;;;;7.05;6.35;;;;;;;7.43;57.20;94209.34;5138122;27;20244;-70
2023/03/09 04:32:47;;;;;;;8.23;6.90;;;;;;;7.39;57.33;94200.25;5120708;27;20617;-71
2023/03/09 04:35:14;;;;;;;8.88;6.80;;;;;;;7.36;57.65;94204.47;5120127;27;20260;-71
2023/03/09 04:37:41;;;;;;;8.45;6.88;;;;;;;7.39;57.85;94198.28;5138061;27;20179;-70
2023/03/09 04:40:09;;;;;;;7.72;6.43;;;;;;;7.38;58.17;94184.94;5138175;27;20257;-71
2023/03/09 04:42:36;;;;;;;8.75;6.75;;;;;;;7.37;57.70;94189.63;5116399;28;20228;-71
2023/03/09 04:45:06;;;;;;;9.40;6.30;;;;;;;7.34;57.16;94195.03;5116528;28;20195;-71
2023/03/09 04:47:32;;;;;;;6.68;5.97;;;;;;;7.35;57.65;94186.44;5117514;28;20183;-71
2023/03/09 04:49:59;;;;;;;10.65;6.55;;;;;;;7.28;57.66;94186.25;5116654;28;20207;-71
2023/03/09 04:52:26;;;;;;;7.30;6.68;;;;;;;7.22;58.10;94195.88;5116583;28;20222;-71
2023/03/09 04:55:00;;;;;;;7.50;6.25;;;;;;;7.20;58.20;94189.97;5116366;28;20210;-72
2023/03/09 04:57:30;;;;;;;8.52;6.95;;;;;;;7.12;58.27;94199.97;5099548;28;20298;-71
2023/03/09 04:59:57;;;;;;;9.30;6.90;;;;;;;7.08;58.53;94188.13;5116629;28;20286;-72
2023/03/09 05:02:28;;;;;;;11.77;10.05;;;;;;;7.11;58.68;94186.59;5116705;28;20188;-71
2023/03/09 05:04:55;;;;;;;16.70;11.70;;;;;;;7.06;58.86;94189.59;5117402;28;20266;-71
2023/03/09 05:07:22;;;;;;;15.98;11.05;;;;;;;6.98;59.18;94191.38;5116286;28;20196;-71
2023/03/09 05:09:49;;;;;;;11.52;10.13;;;;;;;6.96;59.28;94183.47;5117194;28;20196;-71
2023/03/09 05:12:15;;;;;;;9.68;8.68;;;;;;;6.97;59.68;94184.28;5116156;28;20207;-71
2023/03/09 05:14:43;;;;;;;12.38;9.85;;;;;;;6.97;59.30;94193.31;5116784;28;20215;-72
2023/03/09 05:17:09;;;;;;;10.13;9.05;;;;;;;7.02;59.21;94183.25;5116349;28;20211;-71
2023/03/09 05:19:38;;;;;;;10.32;8.50;;;;;;;7.12;58.72;94185.47;5117505;28;20511;-70
2023/03/09 05:22:06;;;;;;;21.20;17.35;;;;;;;7.16;58.73;94194.56;5117987;28;20256;-70
2023/03/09 05:24:33;;;;;;;27.40;23.40;;;;;;;7.14;58.90;94189.44;5117996;28;20192;-72
2023/03/09 05:27:00;;;;;;;29.13;26.02;;;;;;;7.08;58.97;94173.59;5116840;28;20229;-70
2023/03/09 05:29:27;;;;;;;16.25;14.73;;;;;;;7.12;59.04;94189.00;5116658;28;20196;-71
2023/03/09 05:31:55;;;;;;;19.35;15.65;;;;;;;7.21;58.44;94188.81;5115595;28;20202;-72
2023/03/09 05:34:22;;;;;;;15.70;14.30;;;;;;;7.25;58.57;94186.97;5115197;28;20216;-71
2023/03/09 05:36:50;;;;;;;15.57;13.98;;;;;;;7.28;58.34;94199.19;5115154;28;20196;-71
2023/03/09 05:39:17;;;;;;;10.32;8.82;;;;;;;7.33;58.42;94207.94;5115647;28;20219;-71
2023/03/09 05:41:44;;;;;;;10.82;8.43;;;;;;;7.36;57.96;94209.19;5118977;27;20827;-71
2023/03/09 05:44:12;;;;;;;9.90;8.57;;;;;;;7.39;58.50;94197.50;5118809;27;20256;-71
2023/03/09 05:46:39;;;;;;;9.98;8.98;;;;;;;7.40;58.14;94213.59;5118662;27;20218;-71
2023/03/09 05:49:05;;;;;;;10.48;9.48;;;;;;;7.51;58.11;94207.59;5136780;27;20179;-71
2023/03/09 05:51:32;;;;;;;11.18;10.15;;;;;;;7.50;58.14;94201.31;5119000;27;20531;-71
2023/03/09 05:54:00;;;;;;;12.52;9.75;;;;;;;7.48;58.03;94204.41;5118412;27;20191;-71
2023/03/09 05:56:27;;;;;;;11.60;9.50;;;;;;;7.50;57.83;94226.00;5136456;27;20210;-71
2023/03/09 05:58:56;;;;;;;14.55;11.02;;;;;;;7.54;58.06;94224.13;5118419;27;20195;-71
2023/03/09 06:01:24;;;;;;;12.18;10.27;;;;;;;7.55;57.91;94227.69;5118865;27;20266;-70
2023/03/09 06:03:51;;;;;;;11.63;10.43;;;;;;;7.61;57.47;94229.81;5119724;27;20205;-70
2023/03/09 06:06:19;;;;;;;11.38;10.25;;;;;;;7.56;57.61;94238.31;5120512;27;20293;-70
2023/03/09 06:08:46;;;;;;;12.48;11.27;;;;;;;7.56;58.01;94243.00;5137799;27;20206;-70
2023/03/09 06:11:15;;;;;;;21.30;19.10;;;;;;;7.67;57.82;94244.88;5137998;27;20191;-70
2023/03/09 06:13:41;;;;;;;11.35;10.25;;;;;;;7.66;57.48;94245.19;5120672;27;20193;-70
2023/03/09 06:16:10;;;;;;;10.93;9.55;;;;;;;7.70;57.49;94246.91;5120184;27;20520;-70
2023/03/09 06:18:38;;;;;;;9.65;8.80;;;;;;;7.71;57.53;94231.22;5119832;27;20195;-70
2023/03/09 06:21:06;;;;;;;13.25;8.40;;;;;;;7.72;57.17;94230.84;5119600;27;20199;-70
2023/03/09 06:23:35;;;;;;;10.05;8.30;;;;;;;7.78;57.28;94225.91;5119458;27;20195;-71
2023/03/09 06:26:03;;;;;;;9.38;7.88;;;;;;;7.87;57.10;94229.25;5136438;27;20183;-70
2023/03/09 06:28:31;;;;;;;8.88;7.07;;;;;;;7.96;56.41;94229.88;5118313;28;20191;-70
2023/03/09 06:30:58;;;;;;;8.40;6.90;;;;;;;8.04;56.51;94228.09;5118082;28;20201;-70
2023/03/09 06:33:24;;;;;;;8.48;6.70;;;;;;;8.11;55.79;94224.72;5119149;28;20207;-70
2023/03/09 06:35:51;;;;;;;7.93;6.30;;;;;;;8.18;56.01;94224.88;5136503;28;20214;-70
2023/03/09 06:38:19;;;;;;;9.77;7.38;;;;;;;8.27;56.42;94219.97;5118378;28;20191;-71
2023/03/09 06:40:46;;;;;;;9.63;7.95;;;;;;;8.34;55.67;94228.38;5118130;28;20203;-70
2023/03/09 06:43:12;;;;;;;7.95;6.60;;;;;;;8.38;55.35;94231.22;5114459;28;20291;-71
2023/03/09 06:45:45;;;;;;;9.02;6.43;;;;;;;8.41;55.38;94220.31;5114603;28;20202;-71
2023/03/09 06:48:12;;;;;;;9.25;7.25;;;;;;;8.48;55.32;94222.41;5115631;28;20195;-71
2023/03/09 06:50:39;;;;;;;8.02;6.47;;;;;;;8.44;55.13;94211.34;5119728;28;20195;-70
2023/03/09 06:53:05;;;;;;;7.40;6.70;;;;;;;8.45;55.94;94203.91;5119326;28;20195;-69
2023/03/09 06:55:32;;;;;;;8.30;6.85;;;;;;;8.52;55.59;94209.53;5118947;28;20222;-70
2023/03/09 06:57:59;;;;;;;7.72;6.97;;;;;;;8.59;55.07;94212.44;5118681;28;20328;-70
2023/03/09 07:00:26;;;;;;;7.68;6.88;;;;;;;8.61;55.31;94192.84;5118337;28;20199;-70
2023/03/09 07:02:54;;;;;;;8.55;7.20;;;;;;;8.63;54.78;94205.06;5118817;28;20195;-70
2023/03/09 07:05:21;;;;;;;8.25;6.60;;;;;;;8.71;54.97;94188.72;5119253;28;20198;-70
2023/03/09 07:07:48;;;;;;;8.73;7.25;;;;;;;8.76;54.81;94199.44;5118710;28;20198;-70
2023/03/09 07:10:15;;;;;;;9.30;8.23;;;;;;;8.78;54.80;94194.34;5118535;28;20196;-70
2023/03/09 07:12:42;;;;;;;10.25;8.60;;;;;;;8.87;54.82;94203.19;5118985;28;20223;-70
2023/03/09 07:15:09;;;;;;;9.20;8.13;;;;;;;8.98;54.72;94195.16;5118095;28;20212;-70
2023/03/09 07:17:36;;;;;;;10.38;9.30;;;;;;;9.00;54.58;94190.06;5119531;28;20191;-70
2023/03/09 07:20:05;;;;;;;10.27;8.60;;;;;;;9.14;56.40;94196.63;5118315;28;20223;-70
2023/03/09 07:22:32;;;;;;;10.32;8.13;;;;;;;9.37;54.98;94195.88;5118718;28;20245;-70
2023/03/09 07:24:59;;;;;;;8.43;7.63;;;;;;;9.52;54.71;94203.22;5118512;28;20202;-69
2023/03/09 07:27:25;;;;;;;13.27;10.57;;;;;;;9.58;53.92;94207.22;5118627;28;20223;-70
2023/03/09 07:29:52;;;;;;;13.65;11.07;;;;;;;9.62;53.83;94215.56;5117989;28;20192;-70
2023/03/09 07:32:19;;;;;;;17.33;12.43;;;;;;;9.69;54.24;94204.66;5117740;28;20211;-70
2023/03/09 07:34:46;;;;;;;12.65;11.35;;;;;;;9.85;54.23;94204.53;5118605;28;20212;-70
2023/03/09 07:37:14;;;;;;;13.95;11.90;;;;;;;9.87;54.39;94210.47;5118856;28;20188;-70
2023/03/09 07:39:41;;;;;;;14.38;11.43;;;;;;;9.82;54.47;94213.53;5118783;28;20206;-70
2023/03/09 07:42:08;;;;;;;14.80;11.77;;;;;;;9.86;54.34;94206.13;5117504;28;20235;-70
2023/03/09 07:44:34;;;;;;;13.30;10.70;;;;;;;9.82;53.74;94206.06;5118017;28;20211;-70
2023/03/09 07:47:02;;;;;;;12.63;11.23;;;;;;;9.74;53.94;94207.13;5117536;28;20194;-70
2023/03/09 07:49:29;;;;;;;11.63;10.45;;;;;;;9.83;54.63;94206.84;5117717;28;20607;-70
2023/03/09 07:51:57;;;;;;;10.45;9.45;;;;;;;9.93;54.63;94210.97;5119207;28;20187;-70
2023/03/09 07:54:25;;;;;;;10.95;9.90;;;;;;;9.95;53.78;94209.44;5119561;28;20298;-69
2023/03/09 07:56:52;;;;;;;12.18;9.63;;;;;;;9.99;53.82;94207.53;5120675;28;20214;-70
2023/03/09 07:59:20;;;;;;;11.25;9.02;;;;;;;10.04;53.44;94204.44;5118837;28;20269;-70
2023/03/09 08:01:47;;;;;;;10.35;8.68;;;;;;;10.07;53.54;94206.47;5118802;28;20196;-69
2023/03/09 08:04:16;;;;;;;10.80;9.40;;;;;;;10.05;53.56;94200.50;5118352;28;20200;-70
2023/03/09 08:06:43;;;;;;;10.40;9.35;;;;;;;10.02;53.16;94197.69;5119967;28;20531;-70
2023/03/09 08:09:14;;;;;;;12.18;9.38;;;;;;;10.09;53.69;94189.53;5119691;28;20229;-70
2023/03/09 08:11:43;;;;;;;10.23;9.20;;;;;;;10.19;53.57;94205.44;5119321;28;20200;-69
2023/03/09 08:14:10;;;;;;;9.95;8.73;;;;;;;10.28;53.23;94202.47;5119306;28;20192;-69
2023/03/09 08:16:37;;;;;;;9.65;8.77;;;;;;;10.32;53.52;94201.34;5120397;28;20294;-70
2023/03/09 08:19:04;;;;;;;11.60;10.40;;;;;;;10.27;52.99;94204.41;5120904;28;20195;-69
2023/03/09 08:21:31;;;;;;;12.00;10.80;;;;;;;10.25;53.02;94203.19;5119685;28;20188;-70
2023/03/09 08:23:59;;;;;;;13.93;11.65;;;;;;;10.27;53.19;94190.63;5119342;28;20199;-70
2023/03/09 08:26:27;;;;;;;15.80;13.13;;;;;;;10.34;53.11;94192.69;5120151;28;20199;-69
2023/03/09 08:28:55;;;;;;;12.57;11.13;;;;;;;10.43;53.35;94197.94;5118623;28;20202;-69
2023/03/09 08:31:23;;;;;;;15.10;10.57;;;;;;;10.58;53.29;94195.00;5119586;28;20199;-70
2023/03/09 08:33:50;;;;;;;12.40;10.43;;;;;;;10.68;53.35;94190.78;5119073;28;20222;-70
2023/03/09 08:36:18;;;;;;;14.25;10.95;;;;;;;10.75;53.13;94199.16;5118907;28;20207;-69
2023/03/09 08:38:46;;;;;;;12.73;10.75;;;;;;;10.94;53.21;94184.41;5119580;28;20195;-70
2023/03/09 08:41:13;;;;;;;13.10;11.48;;;;;;;11.03;52.70;94190.41;5119689;28;20607;-70
2023/03/09 08:43:40;;;;;;;13.00;10.57;;;;;;;11.20;53.47;94182.72;5139301;27;20234;-69
2023/03/09 08:46:08;;;;;;;13.77;10.63;;;;;;;11.41;51.96;94180.19;5122443;27;20191;-70
2023/03/09 08:48:35;;;;;;;11.93;10.73;;;;;;;11.59;51.89;94185.06;5140565;27;20183;-70
2023/03/09 08:51:04;;;;;;;11.40;10.07;;;;;;;11.72;51.13;94181.63;5122183;27;20187;-69
2023/03/09 08:53:31;;;;;;;13.35;11.77;;;;;;;11.79;51.13;94184.44;5122791;27;20318;-70
2023/03/09 08:55:58;;;;;;;14.27;11.57;;;;;;;11.88;50.07;94186.16;5122632;27;20207;-69
2023/03/09 08:58:25;;;;;;;13.23;11.38;;;;;;;11.97;50.65;94168.03;5122405;27;20195;-70
2023/03/09 09:00:51;;;;;;;11.98;10.75;;;;;;;11.97;49.99;94159.75;5122214;27;20195;-70
2023/03/09 09:03:20;;;;;;;13.95;10.48;;;;;;;11.96;49.62;94160.94;5122864;27;20187;-69
2023/03/09 09:05:46;;;;;;;11.07;9.80;;;;;;;12.01;50.14;94149.50;5140086;27;20176;-70
2023/03/09 09:08:13;;;;;;;11.82;9.15;;;;;;;12.00;49.29;94142.41;5139956;27;20198;-70
2023/03/09 09:10:42;;;;;;;10.63;9.23;;;;;;;12.00;49.93;94150.69;5122749;27;20190;-70
2023/03/09 09:13:09;;;;;;;10.77;9.02;;;;;;;12.00;49.55;94147.94;5138500;27;20191;-70
2023/03/09 09:15:38;;;;;;;9.75;8.00;;;;;;;12.04;50.02;94145.19;5121667;27;20313;-70
2023/03/09 09:18:06;;;;;;;9.07;7.88;;;;;;;12.04;49.52;94134.94;5122514;27;20191;-70
2023/03/09 09:20:34;;;;;;;8.25;7.45;;;;;;;12.07;49.56;94138.91;5121676;27;20198;-69
2023/03/09 09:23:01;;;;;;;8.55;6.90;;;;;;;12.08;49.87;94128.63;5122432;27;20202;-69
2023/03/09 09:25:28;;;;;;;8.35;6.55;;;;;;;12.17;50.27;94126.34;5139364;27;20167;-69
2023/03/09 09:27:55;;;;;;;8.30;7.07;;;;;;;12.31;48.85;94125.59;5121380;27;20202;-68
2023/03/09 09:30:22;;;;;;;10.60;7.60;;;;;;;12.43;49.63;94122.53;5121382;27;20195;-68
2023/03/09 09:32:49;;;;;;;9.10;7.10;;;;;;;12.52;49.07;94117.41;5122267;27;20236;-69
2023/03/09 09:35:16;;;;;;;8.20;7.00;;;;;;;12.59;48.63;94120.22;5122110;27;20195;-68
2023/03/09 09:37:44;;;;;;;8.52;6.72;;;;;;;12.73;49.00;94111.19;5121824;27;20227;-68
2023/03/09 09:40:13;;;;;;;9.07;6.15;;;;;;;12.93;48.59;94112.44;5140239;27;20198;-69
2023/03/09 09:42:42;;;;;;;8.98;6.30;;;;;;;13.20;49.37;94117.66;5117845;28;20292;-68
2023/03/09 09:45:24;;;;;;;8.73;6.35;;;;;;;13.55;47.27;94108.63;5118327;28;20212;-69
2023/03/09 09:47:51;;;;;;;6.60;5.47;;;;;;;13.80;47.41;94116.94;5119565;28;20184;-69
2023/03/09 09:50:18;;;;;;;7.57;5.35;;;;;;;14.12;47.37;94118.88;5117623;28;20191;-69
2023/03/09 09:52:52;;;;;;;6.28;5.20;;;;;;;14.37;46.25;94100.19;5119222;28;20184;-69
2023/03/09 09:55:21;;;;;;;4.95;4.00;;;;;;;14.56;46.03;94093.44;5119149;28;20183;-69
2023/03/09 09:57:50;;;;;;;6.95;4.72;;;;;;;14.71;46.20;94088.63;5117873;28;20196;-68
2023/03/09 10:00:19;;;;;;;5.97;3.25;;;;;;;14.84;44.76;94098.06;5118387;28;20195;-69
2023/03/09 10:03:06;;;;;;;3.25;2.00;;;;;;;15.09;43.71;94109.06;5118654;28;20203;-69
2023/03/09 10:05:40;;;;;;;2.22;1.40;;;;;;;15.29;43.95;94080.78;5117777;28;20632;-69
2023/03/09 10:08:20;;;;;;;1.95;1.75;;;;;;;15.58;44.64;94084.16;5117363;28;20228;-69
2023/03/09 10:10:47;;;;;;;3.03;1.80;;;;;;;15.81;41.59;94078.03;5117864;28;20196;-68
2023/03/09 10:13:17;;;;;;;3.10;1.63;;;;;;;15.81;41.74;94062.13;5117682;28;20196;-69
2023/03/09 10:15:44;;;;;;;2.33;1.50;;;;;;;15.93;41.84;94060.03;5118082;28;20219;-69
2023/03/09 10:18:14;;;;;;;1.38;1.33;;;;;;;16.08;41.70;94053.13;5117724;28;20191;-69
2023/03/09 10:20:44;;;;;;;1.75;1.58;;;;;;;16.12;41.65;94038.00;5117972;28;20267;-69
2023/03/09 10:23:20;;;;;;;2.90;1.95;;;;;;;16.19;41.18;94073.28;5118123;28;20269;-69
2023/03/09 10:25:48;;;;;;;1.60;1.50;;;;;;;16.00;40.98;94027.38;5118070;28;20192;-68
2023/03/09 10:28:18;;;;;;;6.22;1.75;;;;;;;16.17;41.07;94035.97;5117963;28;20199;-68
2023/03/09 10:30:49;;;;;;;2.67;1.60;;;;;;;16.38;41.69;94035.72;5117662;28;20227;-68
2023/03/09 10:33:18;;;;;;;3.40;1.77;;;;;;;16.55;41.21;94017.22;5118637;28;20183;-68
2023/03/09 10:35:46;;;;;;;2.33;1.70;;;;;;;16.76;40.27;94008.63;5117665;28;20204;-68
2023/03/09 10:38:16;;;;;;;2.75;1.98;;;;;;;16.81;39.88;94015.72;5116617;28;20585;-69
2023/03/09 10:40:46;;;;;;;2.35;1.40;;;;;;;16.97;39.59;94013.13;5100193;28;20203;-69
2023/03/09 10:43:20;;;;;;;1.50;1.40;;;;;;;16.94;39.32;94021.53;5132864;28;20245;-69
2023/03/09 10:45:47;;;;;;;1.77;1.40;;;;;;;17.11;39.65;94014.91;5120750;28;20206;-68
2023/03/09 10:48:21;;;;;;;1.95;1.63;;;;;;;17.21;38.61;94002.84;5120229;28;20252;-69
2023/03/09 10:50:59;;;;;;;1.83;1.40;;;;;;;17.19;39.15;93994.09;5120575;28;20187;-68
2023/03/09 10:53:32;;;;;;;2.53;1.58;;;;;;;17.28;39.64;94010.28;5138351;28;20187;-69
2023/03/09 10:56:05;;;;;;;2.42;1.90;;;;;;;17.49;39.65;93986.84;5120415;28;20218;-69
2023/03/09 10:58:33;;;;;;;2.17;1.70;;;;;;;17.85;39.13;93997.44;5120505;28;20202;-69
2023/03/09 11:01:02;;;;;;;1.60;1.50;;;;;;;17.99;38.42;94000.75;5120639;28;20211;-68
2023/03/09 11:03:35;;;;;;;2.60;1.70;;;;;;;18.09;37.94;93975.88;5138817;28;20201;-69
2023/03/09 11:06:33;;;;;;;2.42;1.80;;;;;;;18.15;37.52;93977.72;5138350;28;20251;-68
2023/03/09 11:09:15;;;;;;;1.70;1.60;;;;;;;18.00;37.05;93977.19;5135830;28;20538;-68
2023/03/09 11:11:42;;;;;;;2.38;1.65;;;;;;;17.88;37.39;93975.06;5119683;28;20195;-68
2023/03/09 11:14:24;;;;;;;1.60;1.50;;;;;;;18.04;37.07;93961.19;5137945;28;20256;-69
2023/03/09 11:16:52;;;;;;;2.15;1.90;;;;;;;18.14;36.73;93955.84;5138099;28;20232;-68
2023/03/09 11:19:20;;;;;;;2.92;2.00;;;;;;;18.24;36.52;93964.00;5119614;28;20227;-68
2023/03/09 11:21:52;;;;;;;2.47;1.88;;;;;;;18.25;36.90;93953.63;5119891;28;20198;-68
2023/03/09 11:24:22;;;;;;;1.60;1.50;;;;;;;18.38;36.64;93953.78;5137701;28;20179;-70
2023/03/09 11:26:54;;;;;;;1.73;1.60;;;;;;;18.34;36.48;93942.69;5119232;28;20217;-70
2023/03/09 11:29:28;;;;;;;1.90;1.73;;;;;;;18.55;36.57;93957.41;5119715;28;20199;-69
2023/03/09 11:31:56;;;;;;;1.70;1.60;;;;;;;18.57;36.60;93954.97;5137048;28;20182;-69
2023/03/09 11:34:27;;;;;;;1.60;1.50;;;;;;;18.73;36.36;93930.69;5119368;27;20206;-70
2023/03/09 11:36:57;;;;;;;1.50;1.20;;;;;;;18.80;35.39;93952.09;5122657;27;20676;-69
2023/03/09 11:39:30;;;;;;;2.58;1.70;;;;;;;18.82;35.42;93951.66;5123210;27;20199;-69
2023/03/09 11:41:58;;;;;;;1.70;1.60;;;;;;;18.88;35.34;93924.78;5119360;28;20322;-69